createdAt,value
2023-02-01T00:00:26.317Z,101588.53
2023-02-01T00:02:55.676Z,101577.22
2023-02-01T00:05:23.870Z,101561.47
2023-02-01T00:07:56.098Z,101562.25
2023-02-01T00:10:25.576Z,101578.03
2023-02-01T00:12:54.930Z,101580.66
2023-02-01T00:15:24.331Z,101566.59
2023-02-01T00:17:55.640Z,101571.06
2023-02-01T00:20:23.631Z,101579.78
2023-02-01T00:22:51.967Z,101569.28
2023-02-01T00:25:20.137Z,101573.59
2023-02-01T00:27:52.508Z,101561.34
2023-02-01T00:30:21.047Z,101562.25
2023-02-01T00:32:49.345Z,101575.41
2023-02-01T00:35:17.743Z,101568.47
2023-02-01T00:37:45.892Z,101567.47
2023-02-01T00:40:14.774Z,101572.75
2023-02-01T00:42:42.889Z,101576.25
2023-02-01T00:45:14.643Z,101558.72
2023-02-01T00:47:42.819Z,101583.28
2023-02-01T00:50:12.194Z,101575.34
2023-02-01T00:52:40.281Z,101568.41
2023-02-01T00:55:11.791Z,101563.13
2023-02-01T00:57:39.889Z,101544.72
2023-02-01T01:00:16.363Z,101567.50
2023-02-01T01:02:45.538Z,101559.59
2023-02-01T01:05:15.566Z,101558.75
2023-02-01T01:07:43.658Z,101550.84
2023-02-01T01:10:12.536Z,101553.47
2023-02-01T01:12:41.847Z,101554.31
2023-02-01T01:15:10.936Z,101536.81
2023-02-01T01:17:42.461Z,101535.00
2023-02-01T01:20:14.487Z,101542.81
2023-02-01T01:22:42.460Z,101545.50
2023-02-01T01:25:10.925Z,101543.66
2023-02-01T01:27:41.037Z,101547.13
2023-02-01T01:30:20.352Z,101537.50
2023-02-01T01:32:55.911Z,101545.41
2023-02-01T01:35:58.938Z,101537.50
2023-02-01T01:38:28.831Z,101543.56
2023-02-01T01:40:56.773Z,101540.06
2023-02-01T01:44:13.112Z,101536.56
2023-02-01T01:46:45.413Z,101526.97
2023-02-01T01:49:19.708Z,101518.22
2023-02-01T01:51:54.079Z,101495.59
2023-02-01T01:54:26.599Z,101488.63
2023-02-01T01:56:59.248Z,101456.34
2023-02-01T01:59:29.734Z,101529.97
2023-02-01T02:01:58.124Z,101488.03
2023-02-01T02:04:28.004Z,101501.06
2023-02-01T02:07:02.629Z,101495.00
2023-02-01T02:09:30.819Z,101489.78
2023-02-01T02:12:02.097Z,101477.53
2023-02-01T02:14:30.859Z,101440.88
2023-02-01T02:17:17.505Z,101452.25
2023-02-01T02:20:27.702Z,101432.13
2023-02-01T02:23:41.592Z,101419.91
2023-02-01T02:26:36.941Z,101406.75
2023-02-01T02:29:39.554Z,101374.38
2023-02-01T02:32:47.577Z,101384.81
2023-02-01T02:35:29.197Z,101385.72
2023-02-01T02:38:12.107Z,101369.09
2023-02-01T02:40:51.551Z,101351.66
2023-02-01T02:43:41.516Z,101349.81
2023-02-01T02:46:31.080Z,101339.28
2023-02-01T02:49:07.553Z,101311.31
2023-02-01T02:52:01.077Z,101307.03
2023-02-01T02:54:50.040Z,101320.03
2023-02-01T02:57:43.065Z,101313.84
2023-02-01T03:00:32.248Z,101301.63
2023-02-01T03:03:19.968Z,101324.34
2023-02-01T03:05:51.572Z,101311.94
2023-02-01T03:08:22.978Z,101331.25
2023-02-01T03:10:55.999Z,101311.13
2023-02-01T03:13:34.604Z,101333.00
2023-02-01T03:16:08.913Z,101320.63
2023-02-01T03:18:44.530Z,101327.66
2023-02-01T03:21:18.468Z,101333.75
2023-02-01T03:23:50.347Z,101332.03
2023-02-01T03:26:21.759Z,101336.38
2023-02-01T03:28:56.930Z,101338.13
2023-02-01T03:31:26.393Z,101339.94
2023-02-01T03:33:54.448Z,101334.72
2023-02-01T03:36:28.107Z,101326.81
2023-02-01T03:39:03.907Z,101333.84
2023-02-01T03:41:39.910Z,101327.72
2023-02-01T03:44:21.893Z,101313.63
2023-02-01T03:46:54.002Z,101337.25
2023-02-01T03:49:27.449Z,101318.81
2023-02-01T03:52:02.568Z,101325.00
2023-02-01T03:54:35.525Z,101333.59
2023-02-01T03:57:09.300Z,101348.47
2023-02-01T03:59:41.475Z,101331.84
2023-02-01T04:02:10.134Z,101313.56
2023-02-01T04:04:38.352Z,101334.34
2023-02-01T04:07:08.937Z,101326.41
2023-02-01T04:09:39.173Z,101343.06
2023-02-01T04:12:07.334Z,101352.84
2023-02-01T04:14:35.659Z,101348.50
2023-02-01T04:17:04.119Z,101338.91
2023-02-01T04:19:32.097Z,101338.91
2023-02-01T04:22:00.120Z,101322.38
2023-02-01T04:24:29.328Z,101309.16
2023-02-01T04:27:01.080Z,101308.31
2023-02-01T04:29:29.374Z,101318.78
2023-02-01T04:32:00.604Z,101312.63
2023-02-01T04:34:28.539Z,101311.72
2023-02-01T04:36:57.679Z,101304.59
2023-02-01T04:39:25.871Z,101315.97
2023-02-01T04:41:55.251Z,101308.06
2023-02-01T04:44:24.819Z,101295.00
2023-02-01T04:46:55.320Z,101327.28
2023-02-01T04:49:23.538Z,101342.25
2023-02-01T04:51:53.539Z,101354.44
2023-02-01T04:54:23.957Z,101347.38
2023-02-01T04:56:51.855Z,101357.94
2023-02-01T04:59:20.121Z,101343.94
2023-02-01T05:01:49.622Z,101350.16
2023-02-01T05:04:19.543Z,101372.84
2023-02-01T05:06:49.610Z,101354.44
2023-02-01T05:09:17.576Z,101364.03
2023-02-01T05:12:14.607Z,101379.81
2023-02-01T05:14:43.007Z,101370.16
2023-02-01T05:17:12.466Z,101363.97
2023-02-01T05:19:40.499Z,101379.63
2023-02-01T05:22:08.604Z,101362.25
2023-02-01T05:24:36.638Z,101393.72
2023-02-01T05:27:04.863Z,101388.47
2023-02-01T05:29:33.055Z,101387.53
2023-02-01T05:32:19.484Z,101397.28
2023-02-01T05:34:52.037Z,101388.44
2023-02-01T05:37:19.930Z,101405.13
2023-02-01T05:39:47.929Z,101407.69
2023-02-01T05:42:15.998Z,101425.25
2023-02-01T05:44:44.009Z,101405.97
2023-02-01T05:47:12.097Z,101431.34
2023-02-01T05:49:41.266Z,101401.50
2023-02-01T05:52:10.573Z,101418.13
2023-02-01T05:54:38.778Z,101401.50
2023-02-01T05:57:10.307Z,101393.66
2023-02-01T05:59:42.054Z,101382.22
2023-02-01T06:02:11.139Z,101385.69
2023-02-01T06:04:39.238Z,101415.44
2023-02-01T06:07:08.115Z,101411.94
2023-02-01T06:09:37.945Z,101411.84
2023-02-01T06:12:07.756Z,101401.56
2023-02-01T06:14:36.113Z,101401.41
2023-02-01T06:17:04.031Z,101407.56
2023-02-01T06:19:33.063Z,101402.28
2023-02-01T06:22:00.986Z,101425.00
2023-02-01T06:24:44.675Z,101418.88
2023-02-01T06:27:29.310Z,101415.44
2023-02-01T06:30:03.368Z,101404.19
2023-02-01T06:32:32.546Z,101399.94
2023-02-01T06:35:01.658Z,101415.72
2023-02-01T06:37:30.425Z,101415.66
2023-02-01T06:39:59.873Z,101421.75
2023-02-01T06:42:27.772Z,101413.00
2023-02-01T06:44:55.936Z,101417.50
2023-02-01T06:47:23.880Z,101410.53
2023-02-01T06:49:52.806Z,101408.78
2023-02-01T06:52:21.981Z,101405.25
2023-02-01T06:54:50.004Z,101416.63
2023-02-01T06:57:19.817Z,101416.66
2023-02-01T06:59:47.799Z,101424.47
2023-02-01T07:02:15.839Z,101420.00
2023-02-01T07:04:43.948Z,101432.25
2023-02-01T07:07:13.274Z,101443.66
2023-02-01T07:09:41.458Z,101439.28
2023-02-01T07:12:10.497Z,101434.91
2023-02-01T07:14:39.995Z,101426.06
2023-02-01T07:17:08.191Z,101447.13
2023-02-01T07:19:38.007Z,101457.69
2023-02-01T07:22:06.296Z,101445.38
2023-02-01T07:24:36.096Z,101412.22
2023-02-01T07:27:04.142Z,101423.50
2023-02-01T07:29:33.381Z,101429.50
2023-02-01T07:32:03.665Z,101433.81
2023-02-01T07:34:32.601Z,101438.25
2023-02-01T07:37:00.733Z,101399.81
2023-02-01T07:39:29.248Z,101439.16
2023-02-01T07:42:01.426Z,101440.94
2023-02-01T07:44:31.455Z,101441.72
2023-02-01T07:46:59.518Z,101434.00
2023-02-01T07:49:38.799Z,101447.94
2023-02-01T07:52:14.119Z,101430.47
2023-02-01T07:54:42.201Z,101432.16
2023-02-01T07:57:16.307Z,101438.34
2023-02-01T08:00:07.260Z,101426.97
2023-02-01T08:02:37.456Z,101438.38
2023-02-01T08:05:07.803Z,101440.13
2023-02-01T08:07:43.236Z,101445.28
2023-02-01T08:10:12.617Z,101440.91
2023-02-01T08:12:48.808Z,101441.81
2023-02-01T08:15:19.017Z,101434.84
2023-02-01T08:17:50.006Z,101437.41
2023-02-01T08:20:25.285Z,101439.16
2023-02-01T08:23:02.999Z,101453.22
2023-02-01T08:25:31.225Z,101442.66
2023-02-01T08:27:59.403Z,101441.72
2023-02-01T08:30:28.610Z,101439.03
2023-02-01T08:32:57.536Z,101448.66
2023-02-01T08:35:42.397Z,101443.44
2023-02-01T08:38:12.154Z,101436.47
2023-02-01T08:40:47.766Z,101437.28
2023-02-01T08:43:21.843Z,101424.13
2023-02-01T08:45:50.427Z,101426.78
2023-02-01T08:48:20.523Z,101413.50
2023-02-01T08:50:50.969Z,101429.31
2023-02-01T08:53:20.666Z,101388.28
2023-02-01T08:55:59.911Z,101403.84
2023-02-01T08:58:29.032Z,101390.75
2023-02-01T09:00:58.069Z,101402.03
2023-02-01T09:03:27.108Z,101374.06
2023-02-01T09:06:02.380Z,101405.47
2023-02-01T09:08:30.402Z,101394.09
2023-02-01T09:11:03.356Z,101392.28
2023-02-01T09:13:31.558Z,101376.63
2023-02-01T09:16:00.817Z,101397.66
2023-02-01T09:18:56.081Z,101387.91
2023-02-01T09:21:36.867Z,101393.25
2023-02-01T09:24:05.180Z,101388.03
2023-02-01T09:26:33.452Z,101368.78
2023-02-01T09:29:04.480Z,101387.13
2023-02-01T09:31:34.535Z,101363.56
2023-02-01T09:34:02.674Z,101353.03
2023-02-01T09:36:31.317Z,101354.63
2023-02-01T09:39:01.285Z,101380.06
2023-02-01T09:41:40.153Z,101370.34
2023-02-01T09:44:19.749Z,101354.72
2023-02-01T09:46:48.150Z,101358.16
2023-02-01T09:49:20.676Z,101356.59
2023-02-01T09:51:52.874Z,101363.59
2023-02-01T09:54:26.011Z,101335.72
2023-02-01T09:56:58.503Z,101299.25
2023-02-01T09:59:37.522Z,101282.72
2023-02-01T10:02:13.083Z,101257.13
2023-02-01T10:04:41.244Z,101257.13
2023-02-01T10:07:30.401Z,101246.66
2023-02-01T10:10:11.838Z,101232.75
2023-02-01T10:13:14.252Z,101271.25
2023-02-01T10:15:54.103Z,101240.59
2023-02-01T10:18:39.402Z,101246.69
2023-02-01T10:21:18.249Z,101244.88
2023-02-01T10:24:18.696Z,101235.19
2023-02-01T10:26:53.325Z,101223.84
2023-02-01T10:29:24.996Z,101236.06
2023-02-01T10:31:53.559Z,101209.09
2023-02-01T10:34:24.872Z,101221.28
2023-02-01T10:36:57.267Z,101239.75
2023-02-01T10:39:25.540Z,101243.84
2023-02-01T10:41:56.847Z,101222.81
2023-02-01T10:44:28.443Z,101225.41
2023-02-01T10:47:00.830Z,101230.72
2023-02-01T10:49:39.894Z,101245.38
2023-02-01T10:52:14.683Z,101257.41
2023-02-01T10:54:44.522Z,101272.25
2023-02-01T10:57:43.071Z,101258.28
2023-02-01T11:00:22.126Z,101262.63
2023-02-01T11:02:51.248Z,101249.44
2023-02-01T11:05:24.321Z,101257.19
2023-02-01T11:07:56.355Z,101256.41
2023-02-01T11:10:38.795Z,101273.03
2023-02-01T11:13:16.976Z,101286.03
2023-02-01T11:15:48.712Z,101273.03
2023-02-01T11:18:19.489Z,101268.88
2023-02-01T11:20:50.327Z,101248.63
2023-02-01T11:23:20.528Z,101224.03
2023-02-01T11:25:54.236Z,101235.16
2023-02-01T11:28:31.972Z,101186.13
2023-02-01T11:31:04.500Z,101248.78
2023-02-01T11:33:36.123Z,101272.34
2023-02-01T11:36:10.118Z,101282.78
2023-02-01T11:38:38.056Z,101279.34
2023-02-01T11:41:15.298Z,101286.56
2023-02-01T11:43:56.391Z,101274.50
2023-02-01T11:46:30.026Z,101264.00
2023-02-01T11:48:59.584Z,101245.53
2023-02-01T11:51:41.343Z,101250.66
2023-02-01T11:54:44.757Z,101268.94
2023-02-01T11:57:28.012Z,101264.53
2023-02-01T12:00:10.104Z,101274.19
2023-02-01T12:03:20.792Z,101265.41
2023-02-01T12:05:57.965Z,101274.88
2023-02-01T12:09:03.641Z,101268.75
2023-02-01T12:11:45.984Z,101273.53
2023-02-01T12:14:26.924Z,101296.84
2023-02-01T12:17:18.999Z,101295.53
2023-02-01T12:20:09.768Z,101287.69
2023-02-01T12:22:51.249Z,101321.69
2023-02-01T12:25:31.130Z,101311.25
2023-02-01T12:28:42.066Z,101279.72
2023-02-01T12:31:31.149Z,101294.50
2023-02-01T12:34:18.072Z,101304.59
2023-02-01T12:36:52.163Z,101305.31
2023-02-01T12:39:26.420Z,101259.47
2023-02-01T12:42:09.702Z,101249.09
2023-02-01T12:44:45.333Z,101241.41
2023-02-01T12:47:22.127Z,101265.50
2023-02-01T12:50:00.321Z,101233.34
2023-02-01T12:52:36.263Z,101224.34
2023-02-01T12:55:12.409Z,101236.56
2023-02-01T12:57:44.922Z,101215.72
2023-02-01T13:00:24.793Z,101261.09
2023-02-01T13:03:00.332Z,101269.84
2023-02-01T13:05:39.017Z,101250.72
2023-02-01T13:08:10.998Z,101253.72
2023-02-01T13:10:45.704Z,101281.91
2023-02-01T13:13:22.433Z,101260.81
2023-02-01T13:15:59.380Z,101236.91
2023-02-01T13:18:34.128Z,101274.44
2023-02-01T13:21:08.415Z,101273.50
2023-02-01T13:23:39.146Z,101276.25
2023-02-01T13:26:08.825Z,101262.38
2023-02-01T13:29:11.743Z,101292.22
2023-02-01T13:31:58.959Z,101288.03
2023-02-01T13:34:57.459Z,101302.91
2023-02-01T13:37:52.411Z,101289.34
2023-02-01T13:40:35.967Z,101307.41
2023-02-01T13:43:10.551Z,101297.25
2023-02-01T13:45:45.557Z,101276.44
2023-02-01T13:48:23.782Z,101302.72
2023-02-01T13:50:57.188Z,101307.50
2023-02-01T13:53:34.084Z,101319.16
2023-02-01T13:56:10.377Z,101316.63
2023-02-01T13:58:40.478Z,101305.13
2023-02-01T14:01:37.975Z,101314.38
2023-02-01T14:04:08.834Z,101304.00
2023-02-01T14:06:48.568Z,101316.50
2023-02-01T14:09:34.874Z,101311.16
2023-02-01T14:12:53.445Z,101308.94
2023-02-01T14:15:33.363Z,101319.22
2023-02-01T14:18:03.478Z,101311.34
2023-02-01T14:20:46.488Z,101336.66
2023-02-01T14:23:29.055Z,101336.56
2023-02-01T14:26:16.521Z,101356.94
2023-02-01T14:28:54.546Z,101345.50
2023-02-01T14:31:44.708Z,101348.06
2023-02-01T14:34:22.789Z,101346.59
2023-02-01T14:36:56.394Z,101353.22
2023-02-01T14:39:29.791Z,101359.38
2023-02-01T14:42:04.492Z,101339.88
2023-02-01T14:44:35.434Z,101344.59
2023-02-01T14:47:11.085Z,101360.34
2023-02-01T14:49:54.413Z,101358.84
2023-02-01T14:52:25.873Z,101344.38
2023-02-01T14:54:57.775Z,101354.38
2023-02-01T14:57:36.903Z,101355.34
2023-02-01T15:00:16.873Z,101356.19
2023-02-01T15:02:45.718Z,101350.16
2023-02-01T15:05:32.388Z,101361.53
2023-02-01T15:08:06.111Z,101358.97
2023-02-01T15:10:42.739Z,101353.78
2023-02-01T15:13:21.148Z,101352.00
2023-02-01T15:16:02.717Z,101355.56
2023-02-01T15:18:31.682Z,101384.44
2023-02-01T15:21:09.448Z,101381.03
2023-02-01T15:23:49.670Z,101369.59
2023-02-01T15:26:28.816Z,101355.53
2023-02-01T15:28:58.705Z,101365.44
2023-02-01T15:31:38.402Z,101379.50
2023-02-01T15:34:06.925Z,101389.13
2023-02-01T15:36:36.225Z,101395.34
2023-02-01T15:39:19.083Z,101392.56
2023-02-01T15:41:50.532Z,101381.22
2023-02-01T15:44:34.121Z,101364.72
2023-02-01T15:47:07.761Z,101390.91
2023-02-01T15:49:40.034Z,101398.66
2023-02-01T15:52:23.285Z,101389.06
2023-02-01T15:54:54.401Z,101387.31
2023-02-01T15:57:34.140Z,101408.38
2023-02-01T16:00:07.844Z,101418.13
2023-02-01T16:02:39.020Z,101423.47
2023-02-01T16:05:27.162Z,101413.84
2023-02-01T16:08:04.587Z,101412.09
2023-02-01T16:10:33.722Z,101416.66
2023-02-01T16:13:01.799Z,101386.00
2023-02-01T16:15:33.387Z,101402.84
2023-02-01T16:18:02.799Z,101413.19
2023-02-01T16:20:31.407Z,101420.44
2023-02-01T16:23:00.481Z,101411.53
2023-02-01T16:25:29.548Z,101406.50
2023-02-01T16:28:00.241Z,101383.72
2023-02-01T16:30:29.722Z,101381.13
2023-02-01T16:33:00.758Z,101425.88
2023-02-01T16:35:32.422Z,101416.25
2023-02-01T16:38:00.781Z,101415.50
2023-02-01T16:40:28.786Z,101420.78
2023-02-01T16:42:57.245Z,101429.59
2023-02-01T16:45:25.651Z,101445.47
2023-02-01T16:47:56.820Z,101428.78
2023-02-01T16:50:28.637Z,101447.25
2023-02-01T16:52:56.707Z,101452.56
2023-02-01T16:55:25.187Z,101471.94
2023-02-01T16:57:53.872Z,101493.13
2023-02-01T17:00:24.909Z,101508.97
2023-02-01T17:02:53.680Z,101499.38
2023-02-01T17:05:22.490Z,101503.75
2023-02-01T17:07:53.409Z,101504.72
2023-02-01T17:10:32.830Z,101495.81
2023-02-01T17:13:01.758Z,101501.09
2023-02-01T17:15:36.872Z,101498.53
2023-02-01T17:18:05.455Z,101480.13
2023-02-01T17:20:34.063Z,101508.00
2023-02-01T17:23:05.795Z,101510.66
2023-02-01T17:25:34.947Z,101513.31
2023-02-01T17:28:03.103Z,101513.41
2023-02-01T17:30:32.091Z,101526.59
2023-02-01T17:33:05.472Z,101524.88
2023-02-01T17:35:38.380Z,101536.16
2023-02-01T17:38:13.278Z,101534.41
2023-02-01T17:40:41.313Z,101537.19
2023-02-01T17:43:30.924Z,101516.03
2023-02-01T17:46:04.568Z,101520.44
2023-02-01T17:48:32.606Z,101517.91
2023-02-01T17:51:02.041Z,101523.22
2023-02-01T17:53:34.129Z,101546.09
2023-02-01T17:56:02.264Z,101540.59
2023-02-01T17:58:33.411Z,101552.97
2023-02-01T18:01:01.659Z,101545.88
2023-02-01T18:03:32.895Z,101532.72
2023-02-01T18:06:01.862Z,101524.91
2023-02-01T18:08:33.412Z,101515.97
2023-02-01T18:11:02.892Z,101514.28
2023-02-01T18:13:32.329Z,101496.00
2023-02-01T18:16:02.103Z,101515.31
2023-02-01T18:18:31.239Z,101503.00
2023-02-01T18:21:00.199Z,101482.16
2023-02-01T18:23:28.227Z,101513.59
2023-02-01T18:25:57.565Z,101522.25
2023-02-01T18:28:25.677Z,101511.78
2023-02-01T18:30:54.801Z,101521.59
2023-02-01T18:33:22.800Z,101545.16
2023-02-01T18:35:51.038Z,101547.84
2023-02-01T18:38:19.160Z,101545.28
2023-02-01T18:40:51.435Z,101554.00
2023-02-01T18:43:21.075Z,101558.41
2023-02-01T18:45:50.705Z,101567.25
2023-02-01T18:48:21.383Z,101560.22
2023-02-01T18:50:51.933Z,101574.19
2023-02-01T18:53:23.941Z,101573.38
2023-02-01T18:55:52.919Z,101574.28
2023-02-01T18:58:26.448Z,101570.75
2023-02-01T19:00:59.593Z,101552.53
2023-02-01T19:03:48.237Z,101577.84
2023-02-01T19:06:19.472Z,101563.03
2023-02-01T19:08:48.857Z,101567.47
2023-02-01T19:11:16.858Z,101561.28
2023-02-01T19:13:46.391Z,101565.53
2023-02-01T19:16:15.151Z,101549.09
2023-02-01T19:18:43.170Z,101564.00
2023-02-01T19:21:12.811Z,101552.72
2023-02-01T19:23:41.658Z,101575.41
2023-02-01T19:26:12.456Z,101556.19
2023-02-01T19:28:40.865Z,101576.28
2023-02-01T19:31:11.349Z,101564.16
2023-02-01T19:33:39.674Z,101573.78
2023-02-01T19:36:09.957Z,101559.03
2023-02-01T19:38:38.449Z,101583.44
2023-02-01T19:41:06.771Z,101572.13
2023-02-01T19:43:35.550Z,101560.81
2023-02-01T19:46:03.764Z,101580.03
2023-02-01T19:48:35.299Z,101577.28
2023-02-01T19:51:04.247Z,101588.69
2023-02-01T19:53:32.314Z,101591.38
2023-02-01T19:56:01.679Z,101592.25
2023-02-01T19:58:29.846Z,101594.91
2023-02-01T20:00:59.751Z,101597.50
2023-02-01T20:03:28.551Z,101593.97
2023-02-01T20:05:59.887Z,101603.63
2023-02-01T20:08:28.061Z,101609.81
2023-02-01T20:10:57.771Z,101601.09
2023-02-01T20:13:28.446Z,101612.47
2023-02-01T20:16:00.105Z,101616.06
2023-02-01T20:18:28.945Z,101596.91
2023-02-01T20:20:59.291Z,101619.56
2023-02-01T20:23:28.357Z,101619.59
2023-02-01T20:26:02.902Z,101629.25
2023-02-01T20:28:31.087Z,101624.03
2023-02-01T20:31:00.301Z,101626.59
2023-02-01T20:33:30.311Z,101637.19
2023-02-01T20:35:59.698Z,101631.13
2023-02-01T20:38:27.670Z,101631.13
2023-02-01T20:41:03.103Z,101636.38
2023-02-01T20:43:31.101Z,101631.13
2023-02-01T20:45:59.099Z,101633.75
2023-02-01T20:48:32.679Z,101620.69
2023-02-01T20:51:01.939Z,101625.94
2023-02-01T20:53:31.283Z,101621.56
2023-02-01T20:56:00.488Z,101617.19
2023-02-01T20:58:28.639Z,101620.66
2023-02-01T21:00:58.474Z,101629.44
2023-02-01T21:03:26.509Z,101630.31
2023-02-01T21:05:58.344Z,101626.81
2023-02-01T21:08:29.507Z,101632.97
2023-02-01T21:10:59.879Z,101645.22
2023-02-01T21:13:30.418Z,101667.06
2023-02-01T21:15:59.197Z,101666.19
2023-02-01T21:18:27.467Z,101676.69
2023-02-01T21:20:55.898Z,101667.94
2023-02-01T21:23:24.191Z,101673.19
2023-02-01T21:25:53.530Z,101689.81
2023-02-01T21:28:21.479Z,101686.31
2023-02-01T21:30:49.318Z,101681.94
2023-02-01T21:33:17.205Z,101676.69
2023-02-01T21:35:45.268Z,101706.44
2023-02-01T21:38:13.645Z,101708.19
2023-02-01T21:40:41.614Z,101696.81
2023-02-01T21:43:10.876Z,101702.94
2023-02-01T21:45:43.558Z,101703.81
2023-02-01T21:48:11.562Z,101717.78
2023-02-01T21:50:39.414Z,101687.19
2023-02-01T21:53:07.327Z,101722.16
2023-02-01T21:55:41.003Z,101708.16
2023-02-01T21:58:17.262Z,101718.66
2023-02-01T22:00:46.554Z,101712.53
2023-02-01T22:03:14.785Z,101724.75
2023-02-01T22:05:43.701Z,101731.72
2023-02-01T22:08:11.685Z,101735.22
2023-02-01T22:10:42.147Z,101730.88
2023-02-01T22:13:10.247Z,101740.50
2023-02-01T22:15:40.201Z,101736.13
2023-02-01T22:18:08.461Z,101737.81
2023-02-01T22:20:37.811Z,101738.75
2023-02-01T22:23:07.634Z,101760.63
2023-02-01T22:25:36.596Z,101757.97
2023-02-01T22:28:30.971Z,101759.66
2023-02-01T22:30:54.329Z,101774.50
2023-02-01T22:33:22.661Z,101780.66
2023-02-01T22:35:51.228Z,101772.78
2023-02-01T22:38:19.814Z,101772.72
2023-02-01T22:40:55.829Z,101783.19
2023-02-01T22:43:24.256Z,101781.47
2023-02-01T22:45:55.451Z,101763.97
2023-02-01T22:48:23.390Z,101785.78
2023-02-01T22:50:51.283Z,101777.91
2023-02-01T22:53:20.099Z,101770.97
2023-02-01T22:55:51.987Z,101784.06
2023-02-01T22:58:23.081Z,101774.53
2023-02-01T23:00:50.966Z,101770.94
2023-02-01T23:03:24.375Z,101789.25
2023-02-01T23:05:52.384Z,101779.63
2023-02-01T23:08:23.365Z,101782.28
2023-02-01T23:10:51.497Z,101770.88
2023-02-01T23:13:20.857Z,101756.94
2023-02-01T23:15:51.336Z,101760.44
2023-02-01T23:18:20.938Z,101766.59
2023-02-01T23:20:48.833Z,101760.47
2023-02-01T23:23:23.424Z,101753.41
2023-02-01T23:25:51.978Z,101737.63
2023-02-01T23:28:19.947Z,101750.69
2023-02-01T23:30:47.837Z,101739.28
2023-02-01T23:33:15.852Z,101724.50
2023-02-01T23:35:59.258Z,101718.25
2023-02-01T23:38:27.875Z,101710.47
2023-02-01T23:40:59.404Z,101709.53
2023-02-01T23:43:45.727Z,101687.69
2023-02-01T23:46:15.782Z,101676.25
2023-02-01T23:48:44.734Z,101687.72
2023-02-01T23:51:15.537Z,101681.59
2023-02-01T23:53:45.483Z,101673.72
2023-02-01T23:56:21.858Z,101651.91
2023-02-01T23:58:50.927Z,101670.31
